sensor_id;sensor_type;location;lat;lon;timestamp;P1;durP1;ratioP1;P2;durP2;ratioP2
46881;SDS011;44112;38.408;-122.974;2022-11-24T00:01:03;11.32;;;3.70;;
46881;SDS011;44112;38.408;-122.974;2022-11-24T00:03:32;10.93;;;3.13;;
46881;SDS011;44112;38.408;-122.974;2022-11-24T00:06:04;9.65;;;3.28;;
46881;SDS011;44112;38.408;-122.974;2022-11-24T00:08:32;9.77;;;3.33;;
46881;SDS011;44112;38.408;-122.974;2022-11-24T00:11:03;12.85;;;3.40;;
46881;SDS011;44112;38.408;-122.974;2022-11-24T00:13:49;9.98;;;2.80;;
46881;SDS011;44112;38.408;-122.974;2022-11-24T00:16:26;10.20;;;3.08;;
46881;SDS011;44112;38.408;-122.974;2022-11-24T00:18:55;10.10;;;3.33;;
46881;SDS011;44112;38.408;-122.974;2022-11-24T00:21:23;9.45;;;3.03;;
46881;SDS011;44112;38.408;-122.974;2022-11-24T00:23:51;11.07;;;3.25;;
46881;SDS011;44112;38.408;-122.974;2022-11-24T00:26:22;14.75;;;3.95;;
46881;SDS011;44112;38.408;-122.974;2022-11-24T00:28:59;7.90;;;2.95;;
46881;SDS011;44112;38.408;-122.974;2022-11-24T00:31:28;12.63;;;3.17;;
46881;SDS011;44112;38.408;-122.974;2022-11-24T00:34:00;15.13;;;3.40;;
46881;SDS011;44112;38.408;-122.974;2022-11-24T00:36:28;9.30;;;3.25;;
46881;SDS011;44112;38.408;-122.974;2022-11-24T00:38:57;7.18;;;3.00;;
46881;SDS011;44112;38.408;-122.974;2022-11-24T00:41:29;11.48;;;3.42;;
46881;SDS011;44112;38.408;-122.974;2022-11-24T00:43:56;8.43;;;3.20;;
46881;SDS011;44112;38.408;-122.974;2022-11-24T00:46:23;9.68;;;3.05;;
46881;SDS011;44112;38.408;-122.974;2022-11-24T00:48:51;8.27;;;3.05;;
46881;SDS011;44112;38.408;-122.974;2022-11-24T00:51:18;7.25;;;3.00;;
46881;SDS011;44112;38.408;-122.974;2022-11-24T00:53:46;9.80;;;3.13;;
46881;SDS011;44112;38.408;-122.974;2022-11-24T00:56:13;7.50;;;3.08;;
46881;SDS011;44112;38.408;-122.974;2022-11-24T00:58:40;8.52;;;3.00;;
46881;SDS011;44112;38.408;-122.974;2022-11-24T01:01:08;8.50;;;2.70;;
46881;SDS011;44112;38.408;-122.974;2022-11-24T01:03:37;13.10;;;3.20;;
46881;SDS011;44112;38.408;-122.974;2022-11-24T01:06:04;5.20;;;2.50;;
46881;SDS011;44112;38.408;-122.974;2022-11-24T01:08:33;5.78;;;2.70;;
46881;SDS011;44112;38.408;-122.974;2022-11-24T01:13:37;6.97;;;2.83;;
46881;SDS011;44112;38.408;-122.974;2022-11-24T01:16:05;6.70;;;2.60;;
46881;SDS011;44112;38.408;-122.974;2022-11-24T01:18:38;6.93;;;2.90;;
46881;SDS011;44112;38.408;-122.974;2022-11-24T01:21:04;7.43;;;2.75;;
46881;SDS011;44112;38.408;-122.974;2022-11-24T01:23:31;11.43;;;3.08;;
46881;SDS011;44112;38.408;-122.974;2022-11-24T01:25:58;6.20;;;2.67;;
46881;SDS011;44112;38.408;-122.974;2022-11-24T01:28:24;6.30;;;2.78;;
46881;SDS011;44112;38.408;-122.974;2022-11-24T01:31:02;5.65;;;2.70;;
46881;SDS011;44112;38.408;-122.974;2022-11-24T01:33:31;7.07;;;2.70;;
46881;SDS011;44112;38.408;-122.974;2022-11-24T01:36:03;5.93;;;2.70;;
46881;SDS011;44112;38.408;-122.974;2022-11-24T01:38:31;7.13;;;2.85;;
46881;SDS011;44112;38.408;-122.974;2022-11-24T01:41:09;7.25;;;2.75;;
46881;SDS011;44112;38.408;-122.974;2022-11-24T01:43:38;6.80;;;2.92;;
46881;SDS011;44112;38.408;-122.974;2022-11-24T01:49:13;8.10;;;2.70;;
46881;SDS011;44112;38.408;-122.974;2022-11-24T01:51:53;4.85;;;2.60;;
46881;SDS011;44112;38.408;-122.974;2022-11-24T01:54:35;9.20;;;2.95;;
46881;SDS011;44112;38.408;-122.974;2022-11-24T01:57:23;5.82;;;2.70;;
46881;SDS011;44112;38.408;-122.974;2022-11-24T01:59:51;7.97;;;2.78;;
46881;SDS011;44112;38.408;-122.974;2022-11-24T02:02:21;8.35;;;2.70;;
46881;SDS011;44112;38.408;-122.974;2022-11-24T02:04:51;5.15;;;2.47;;
46881;SDS011;44112;38.408;-122.974;2022-11-24T02:07:18;4.97;;;2.40;;
46881;SDS011;44112;38.408;-122.974;2022-11-24T02:09:49;7.00;;;2.72;;
46881;SDS011;44112;38.408;-122.974;2022-11-24T02:12:20;7.15;;;2.88;;
46881;SDS011;44112;38.408;-122.974;2022-11-24T02:14:47;4.55;;;2.38;;
46881;SDS011;44112;38.408;-122.974;2022-11-24T02:17:15;7.13;;;2.85;;
46881;SDS011;44112;38.408;-122.974;2022-11-24T02:19:44;6.20;;;2.50;;
46881;SDS011;44112;38.408;-122.974;2022-11-24T02:27:47;6.68;;;2.50;;
46881;SDS011;44112;38.408;-122.974;2022-11-24T02:30:15;6.35;;;2.70;;
46881;SDS011;44112;38.408;-122.974;2022-11-24T02:32:42;6.47;;;2.65;;
46881;SDS011;44112;38.408;-122.974;2022-11-24T02:35:09;7.40;;;2.67;;
46881;SDS011;44112;38.408;-122.974;2022-11-24T02:37:36;7.40;;;2.92;;
46881;SDS011;44112;38.408;-122.974;2022-11-24T02:40:03;5.75;;;2.58;;
46881;SDS011;44112;38.408;-122.974;2022-11-24T02:42:33;6.05;;;2.60;;
46881;SDS011;44112;38.408;-122.974;2022-11-24T02:45:04;11.10;;;3.10;;
46881;SDS011;44112;38.408;-122.974;2022-11-24T02:47:32;9.23;;;3.05;;
46881;SDS011;44112;38.408;-122.974;2022-11-24T02:49:59;8.38;;;2.70;;
46881;SDS011;44112;38.408;-122.974;2022-11-24T02:52:26;11.52;;;3.00;;
46881;SDS011;44112;38.408;-122.974;2022-11-24T02:54:53;8.02;;;2.50;;
46881;SDS011;44112;38.408;-122.974;2022-11-24T02:57:21;6.15;;;2.50;;
46881;SDS011;44112;38.408;-122.974;2022-11-24T02:59:48;8.02;;;2.60;;
46881;SDS011;44112;38.408;-122.974;2022-11-24T03:02:14;6.80;;;2.55;;
46881;SDS011;44112;38.408;-122.974;2022-11-24T03:04:42;7.85;;;2.60;;
46881;SDS011;44112;38.408;-122.974;2022-11-24T03:07:08;8.23;;;2.60;;
46881;SDS011;44112;38.408;-122.974;2022-11-24T03:09:35;10.00;;;2.65;;
46881;SDS011;44112;38.408;-122.974;2022-11-24T03:12:01;5.97;;;2.53;;
46881;SDS011;44112;38.408;-122.974;2022-11-24T03:14:29;8.85;;;2.50;;
46881;SDS011;44112;38.408;-122.974;2022-11-24T03:16:55;8.98;;;2.67;;
46881;SDS011;44112;38.408;-122.974;2022-11-24T03:19:23;11.93;;;2.63;;
46881;SDS011;44112;38.408;-122.974;2022-11-24T03:21:50;5.50;;;2.42;;
46881;SDS011;44112;38.408;-122.974;2022-11-24T03:24:16;8.07;;;2.70;;
46881;SDS011;44112;38.408;-122.974;2022-11-24T03:26:43;6.38;;;3.00;;
46881;SDS011;44112;38.408;-122.974;2022-11-24T03:29:10;6.00;;;2.58;;
46881;SDS011;44112;38.408;-122.974;2022-11-24T03:31:36;7.75;;;2.72;;
46881;SDS011;44112;38.408;-122.974;2022-11-24T03:34:02;4.35;;;2.38;;
46881;SDS011;44112;38.408;-122.974;2022-11-24T03:36:29;6.70;;;2.78;;
46881;SDS011;44112;38.408;-122.974;2022-11-24T03:38:56;7.40;;;2.60;;
46881;SDS011;44112;38.408;-122.974;2022-11-24T03:41:23;6.53;;;2.58;;
46881;SDS011;44112;38.408;-122.974;2022-11-24T03:43:50;6.57;;;2.60;;
46881;SDS011;44112;38.408;-122.974;2022-11-24T03:46:17;5.15;;;2.63;;
46881;SDS011;44112;38.408;-122.974;2022-11-24T03:48:43;7.32;;;2.75;;
46881;SDS011;44112;38.408;-122.974;2022-11-24T03:51:10;6.40;;;2.75;;
46881;SDS011;44112;38.408;-122.974;2022-11-24T03:53:36;5.18;;;2.40;;
46881;SDS011;44112;38.408;-122.974;2022-11-24T03:56:03;6.32;;;2.65;;
46881;SDS011;44112;38.408;-122.974;2022-11-24T03:58:31;7.03;;;2.63;;
46881;SDS011;44112;38.408;-122.974;2022-11-24T04:00:57;5.13;;;2.70;;
46881;SDS011;44112;38.408;-122.974;2022-11-24T04:03:24;5.13;;;2.58;;
46881;SDS011;44112;38.408;-122.974;2022-11-24T04:05:51;7.07;;;2.60;;
46881;SDS011;44112;38.408;-122.974;2022-11-24T04:08:17;7.03;;;2.72;;
46881;SDS011;44112;38.408;-122.974;2022-11-24T04:10:48;6.60;;;2.85;;
46881;SDS011;44112;38.408;-122.974;2022-11-24T04:13:19;7.40;;;2.80;;
46881;SDS011;44112;38.408;-122.974;2022-11-24T04:15:49;5.72;;;2.70;;
46881;SDS011;44112;38.408;-122.974;2022-11-24T04:18:16;5.40;;;2.60;;
46881;SDS011;44112;38.408;-122.974;2022-11-24T04:20:42;7.18;;;3.10;;
46881;SDS011;44112;38.408;-122.974;2022-11-24T04:23:09;6.13;;;2.80;;
46881;SDS011;44112;38.408;-122.974;2022-11-24T04:25:36;6.10;;;2.60;;
46881;SDS011;44112;38.408;-122.974;2022-11-24T04:28:03;6.30;;;2.95;;
46881;SDS011;44112;38.408;-122.974;2022-11-24T04:30:29;5.00;;;2.70;;
46881;SDS011;44112;38.408;-122.974;2022-11-24T04:32:56;4.95;;;2.70;;
46881;SDS011;44112;38.408;-122.974;2022-11-24T04:35:23;8.13;;;3.00;;
46881;SDS011;44112;38.408;-122.974;2022-11-24T04:37:50;7.90;;;2.83;;
46881;SDS011;44112;38.408;-122.974;2022-11-24T04:40:17;6.32;;;2.80;;
46881;SDS011;44112;38.408;-122.974;2022-11-24T04:42:51;5.93;;;2.95;;
46881;SDS011;44112;38.408;-122.974;2022-11-24T04:45:21;5.78;;;3.00;;
46881;SDS011;44112;38.408;-122.974;2022-11-24T04:47:48;6.70;;;2.78;;
46881;SDS011;44112;38.408;-122.974;2022-11-24T04:50:14;5.80;;;2.70;;
46881;SDS011;44112;38.408;-122.974;2022-11-24T04:52:41;5.35;;;2.58;;
46881;SDS011;44112;38.408;-122.974;2022-11-24T04:55:08;5.40;;;2.90;;
46881;SDS011;44112;38.408;-122.974;2022-11-24T04:57:34;5.18;;;2.60;;
46881;SDS011;44112;38.408;-122.974;2022-11-24T05:00:02;5.30;;;2.50;;
46881;SDS011;44112;38.408;-122.974;2022-11-24T05:02:29;5.47;;;2.60;;
46881;SDS011;44112;38.408;-122.974;2022-11-24T05:04:56;5.43;;;2.78;;
46881;SDS011;44112;38.408;-122.974;2022-11-24T05:07:23;5.18;;;2.88;;
46881;SDS011;44112;38.408;-122.974;2022-11-24T05:09:50;4.88;;;2.90;;
46881;SDS011;44112;38.408;-122.974;2022-11-24T05:12:34;6.18;;;2.90;;
46881;SDS011;44112;38.408;-122.974;2022-11-24T05:15:03;9.40;;;2.80;;
46881;SDS011;44112;38.408;-122.974;2022-11-24T05:17:32;5.57;;;2.80;;
46881;SDS011;44112;38.408;-122.974;2022-11-24T05:20:03;5.35;;;2.70;;
46881;SDS011;44112;38.408;-122.974;2022-11-24T05:22:31;7.88;;;3.00;;
46881;SDS011;44112;38.408;-122.974;2022-11-24T05:24:57;8.00;;;2.90;;
46881;SDS011;44112;38.408;-122.974;2022-11-24T05:27:24;6.45;;;2.83;;
46881;SDS011;44112;38.408;-122.974;2022-11-24T05:29:50;9.98;;;5.32;;
46881;SDS011;44112;38.408;-122.974;2022-11-24T05:32:17;16.33;;;9.75;;
46881;SDS011;44112;38.408;-122.974;2022-11-24T05:34:43;13.05;;;8.18;;
46881;SDS011;44112;38.408;-122.974;2022-11-24T05:37:10;15.82;;;10.40;;
46881;SDS011;44112;38.408;-122.974;2022-11-24T05:39:36;16.20;;;11.00;;
46881;SDS011;44112;38.408;-122.974;2022-11-24T05:42:04;15.60;;;9.65;;
46881;SDS011;44112;38.408;-122.974;2022-11-24T05:44:51;14.90;;;8.98;;
46881;SDS011;44112;38.408;-122.974;2022-11-24T05:47:19;18.52;;;10.27;;
46881;SDS011;44112;38.408;-122.974;2022-11-24T05:49:46;20.30;;;10.93;;
46881;SDS011;44112;38.408;-122.974;2022-11-24T05:52:12;17.58;;;9.68;;
46881;SDS011;44112;38.408;-122.974;2022-11-24T05:54:40;13.48;;;8.25;;
46881;SDS011;44112;38.408;-122.974;2022-11-24T05:57:07;16.98;;;8.63;;
46881;SDS011;44112;38.408;-122.974;2022-11-24T05:59:34;12.07;;;7.93;;
46881;SDS011;44112;38.408;-122.974;2022-11-24T06:02:00;11.90;;;7.78;;
46881;SDS011;44112;38.408;-122.974;2022-11-24T06:04:28;18.25;;;7.70;;
46881;SDS011;44112;38.408;-122.974;2022-11-24T06:06:54;12.48;;;7.05;;
46881;SDS011;44112;38.408;-122.974;2022-11-24T06:09:21;11.98;;;7.40;;
46881;SDS011;44112;38.408;-122.974;2022-11-24T06:11:47;11.15;;;7.50;;
46881;SDS011;44112;38.408;-122.974;2022-11-24T06:14:15;11.82;;;7.63;;
46881;SDS011;44112;38.408;-122.974;2022-11-24T06:16:41;11.40;;;6.88;;
46881;SDS011;44112;38.408;-122.974;2022-11-24T06:19:08;10.60;;;6.72;;
46881;SDS011;44112;38.408;-122.974;2022-11-24T06:21:36;11.18;;;6.85;;
46881;SDS011;44112;38.408;-122.974;2022-11-24T06:24:03;12.98;;;6.88;;
46881;SDS011;44112;38.408;-122.974;2022-11-24T06:26:30;11.10;;;6.32;;
46881;SDS011;44112;38.408;-122.974;2022-11-24T06:28:58;9.18;;;6.65;;
46881;SDS011;44112;38.408;-122.974;2022-11-24T06:31:25;12.52;;;7.18;;
46881;SDS011;44112;38.408;-122.974;2022-11-24T06:33:52;14.00;;;6.70;;
46881;SDS011;44112;38.408;-122.974;2022-11-24T06:36:19;9.57;;;6.38;;
46881;SDS011;44112;38.408;-122.974;2022-11-24T06:38:45;9.50;;;6.50;;
46881;SDS011;44112;38.408;-122.974;2022-11-24T06:41:13;9.48;;;6.43;;
46881;SDS011;44112;38.408;-122.974;2022-11-24T06:43:42;9.43;;;6.30;;
46881;SDS011;44112;38.408;-122.974;2022-11-24T06:46:09;10.30;;;6.15;;
46881;SDS011;44112;38.408;-122.974;2022-11-24T06:48:37;9.43;;;5.88;;
46881;SDS011;44112;38.408;-122.974;2022-11-24T06:51:08;9.63;;;5.80;;
46881;SDS011;44112;38.408;-122.974;2022-11-24T06:53:37;11.03;;;5.97;;
46881;SDS011;44112;38.408;-122.974;2022-11-24T06:56:06;16.52;;;6.70;;
46881;SDS011;44112;38.408;-122.974;2022-11-24T06:58:40;10.50;;;5.50;;
46881;SDS011;44112;38.408;-122.974;2022-11-24T07:01:07;8.52;;;5.75;;
46881;SDS011;44112;38.408;-122.974;2022-11-24T07:03:38;8.75;;;5.78;;
46881;SDS011;44112;38.408;-122.974;2022-11-24T07:06:05;10.65;;;5.63;;
46881;SDS011;44112;38.408;-122.974;2022-11-24T07:08:31;9.82;;;5.53;;
46881;SDS011;44112;38.408;-122.974;2022-11-24T07:11:02;8.57;;;5.55;;
46881;SDS011;44112;38.408;-122.974;2022-11-24T07:13:30;8.57;;;5.40;;
46881;SDS011;44112;38.408;-122.974;2022-11-24T07:15:56;7.35;;;4.90;;
46881;SDS011;44112;38.408;-122.974;2022-11-24T07:18:23;7.47;;;5.05;;
46881;SDS011;44112;38.408;-122.974;2022-11-24T07:20:49;9.05;;;5.30;;
46881;SDS011;44112;38.408;-122.974;2022-11-24T07:23:16;8.30;;;5.28;;
46881;SDS011;44112;38.408;-122.974;2022-11-24T07:25:42;7.35;;;5.30;;
46881;SDS011;44112;38.408;-122.974;2022-11-24T07:28:09;10.48;;;5.10;;
46881;SDS011;44112;38.408;-122.974;2022-11-24T07:30:35;8.10;;;5.07;;
46881;SDS011;44112;38.408;-122.974;2022-11-24T07:33:02;7.50;;;4.85;;
46881;SDS011;44112;38.408;-122.974;2022-11-24T07:35:28;7.20;;;4.50;;
46881;SDS011;44112;38.408;-122.974;2022-11-24T07:37:56;6.63;;;4.60;;
46881;SDS011;44112;38.408;-122.974;2022-11-24T07:40:23;7.65;;;5.20;;
46881;SDS011;44112;38.408;-122.974;2022-11-24T07:42:51;7.28;;;4.88;;
46881;SDS011;44112;38.408;-122.974;2022-11-24T07:45:19;7.13;;;4.55;;
46881;SDS011;44112;38.408;-122.974;2022-11-24T07:47:46;9.70;;;5.43;;
46881;SDS011;44112;38.408;-122.974;2022-11-24T07:50:13;7.80;;;4.93;;
46881;SDS011;44112;38.408;-122.974;2022-11-24T07:52:39;7.05;;;4.60;;
46881;SDS011;44112;38.408;-122.974;2022-11-24T07:55:07;6.93;;;4.65;;
46881;SDS011;44112;38.408;-122.974;2022-11-24T07:57:34;7.38;;;4.72;;
46881;SDS011;44112;38.408;-122.974;2022-11-24T08:00:02;7.78;;;5.05;;
46881;SDS011;44112;38.408;-122.974;2022-11-24T08:02:30;6.82;;;4.40;;
46881;SDS011;44112;38.408;-122.974;2022-11-24T08:04:57;8.30;;;4.50;;
46881;SDS011;44112;38.408;-122.974;2022-11-24T08:07:23;7.68;;;4.40;;
46881;SDS011;44112;38.408;-122.974;2022-11-24T08:09:50;7.07;;;4.32;;
46881;SDS011;44112;38.408;-122.974;2022-11-24T08:12:17;6.80;;;4.40;;
46881;SDS011;44112;38.408;-122.974;2022-11-24T08:14:48;7.30;;;4.43;;
46881;SDS011;44112;38.408;-122.974;2022-11-24T08:17:15;6.63;;;4.15;;
46881;SDS011;44112;38.408;-122.974;2022-11-24T08:19:42;6.30;;;4.28;;
46881;SDS011;44112;38.408;-122.974;2022-11-24T08:22:09;6.93;;;4.40;;
46881;SDS011;44112;38.408;-122.974;2022-11-24T08:24:37;7.50;;;4.20;;
46881;SDS011;44112;38.408;-122.974;2022-11-24T08:27:10;7.80;;;4.30;;
46881;SDS011;44112;38.408;-122.974;2022-11-24T08:29:38;6.72;;;4.03;;
46881;SDS011;44112;38.408;-122.974;2022-11-24T08:32:04;7.18;;;3.85;;
46881;SDS011;44112;38.408;-122.974;2022-11-24T08:34:31;7.20;;;4.10;;
46881;SDS011;44112;38.408;-122.974;2022-11-24T08:36:58;10.60;;;4.47;;
46881;SDS011;44112;38.408;-122.974;2022-11-24T08:39:25;9.70;;;3.95;;
46881;SDS011;44112;38.408;-122.974;2022-11-24T08:41:53;7.55;;;3.97;;
46881;SDS011;44112;38.408;-122.974;2022-11-24T08:44:19;7.93;;;4.35;;
46881;SDS011;44112;38.408;-122.974;2022-11-24T08:46:46;12.18;;;4.60;;
46881;SDS011;44112;38.408;-122.974;2022-11-24T08:49:12;7.82;;;3.80;;
46881;SDS011;44112;38.408;-122.974;2022-11-24T08:51:40;7.38;;;4.07;;
46881;SDS011;44112;38.408;-122.974;2022-11-24T08:54:07;7.22;;;3.70;;
46881;SDS011;44112;38.408;-122.974;2022-11-24T08:56:37;8.55;;;3.55;;
46881;SDS011;44112;38.408;-122.974;2022-11-24T08:59:04;7.13;;;3.80;;
46881;SDS011;44112;38.408;-122.974;2022-11-24T09:01:31;7.28;;;3.60;;
46881;SDS011;44112;38.408;-122.974;2022-11-24T09:03:58;9.63;;;3.95;;
46881;SDS011;44112;38.408;-122.974;2022-11-24T09:06:26;7.88;;;3.92;;
46881;SDS011;44112;38.408;-122.974;2022-11-24T09:08:55;9.07;;;3.88;;
46881;SDS011;44112;38.408;-122.974;2022-11-24T09:11:23;7.40;;;3.67;;
46881;SDS011;44112;38.408;-122.974;2022-11-24T09:13:50;6.30;;;3.55;;
46881;SDS011;44112;38.408;-122.974;2022-11-24T09:16:19;8.02;;;3.50;;
46881;SDS011;44112;38.408;-122.974;2022-11-24T09:18:53;7.10;;;3.30;;
46881;SDS011;44112;38.408;-122.974;2022-11-24T09:21:24;8.10;;;3.60;;
46881;SDS011;44112;38.408;-122.974;2022-11-24T09:23:52;8.73;;;3.30;;
46881;SDS011;44112;38.408;-122.974;2022-11-24T09:26:20;6.60;;;3.47;;
46881;SDS011;44112;38.408;-122.974;2022-11-24T09:28:56;7.35;;;3.55;;
46881;SDS011;44112;38.408;-122.974;2022-11-24T09:31:26;8.10;;;3.50;;
46881;SDS011;44112;38.408;-122.974;2022-11-24T09:33:54;6.05;;;3.65;;
46881;SDS011;44112;38.408;-122.974;2022-11-24T09:36:21;7.53;;;3.60;;
46881;SDS011;44112;38.408;-122.974;2022-11-24T09:38:48;6.20;;;2.97;;
46881;SDS011;44112;38.408;-122.974;2022-11-24T09:49:05;6.25;;;3.30;;
46881;SDS011;44112;38.408;-122.974;2022-11-24T09:51:38;6.60;;;3.22;;
46881;SDS011;44112;38.408;-122.974;2022-11-24T09:54:12;5.50;;;3.15;;
46881;SDS011;44112;38.408;-122.974;2022-11-24T09:56:42;5.60;;;3.22;;
46881;SDS011;44112;38.408;-122.974;2022-11-24T09:59:13;5.70;;;3.03;;
46881;SDS011;44112;38.408;-122.974;2022-11-24T10:01:41;6.25;;;3.22;;
46881;SDS011;44112;38.408;-122.974;2022-11-24T10:04:16;5.95;;;3.15;;
46881;SDS011;44112;38.408;-122.974;2022-11-24T10:12:47;6.45;;;3.13;;
46881;SDS011;44112;38.408;-122.974;2022-11-24T10:15:44;6.70;;;3.10;;
46881;SDS011;44112;38.408;-122.974;2022-11-24T10:21:09;6.18;;;2.97;;
46881;SDS011;44112;38.408;-122.974;2022-11-24T10:26:43;5.97;;;3.08;;
46881;SDS011;44112;38.408;-122.974;2022-11-24T10:29:33;6.43;;;3.10;;
46881;SDS011;44112;38.408;-122.974;2022-11-24T10:32:05;6.25;;;3.17;;
46881;SDS011;44112;38.408;-122.974;2022-11-24T10:34:45;5.13;;;2.90;;
46881;SDS011;44112;38.408;-122.974;2022-11-24T10:42:58;5.38;;;2.95;;
46881;SDS011;44112;38.408;-122.974;2022-11-24T10:45:25;6.55;;;3.00;;
46881;SDS011;44112;38.408;-122.974;2022-11-24T10:47:53;14.02;;;3.13;;
46881;SDS011;44112;38.408;-122.974;2022-11-24T10:50:23;6.97;;;2.70;;
46881;SDS011;44112;38.408;-122.974;2022-11-24T10:52:57;7.38;;;2.80;;
46881;SDS011;44112;38.408;-122.974;2022-11-24T10:58:30;5.30;;;2.75;;
46881;SDS011;44112;38.408;-122.974;2022-11-24T11:06:14;4.90;;;2.60;;
46881;SDS011;44112;38.408;-122.974;2022-11-24T11:11:32;5.43;;;2.70;;
46881;SDS011;44112;38.408;-122.974;2022-11-24T11:14:04;5.45;;;2.88;;
46881;SDS011;44112;38.408;-122.974;2022-11-24T11:22:02;4.80;;;2.67;;
46881;SDS011;44112;38.408;-122.974;2022-11-24T11:24:32;5.85;;;2.97;;
46881;SDS011;44112;38.408;-122.974;2022-11-24T11:26:59;4.72;;;2.60;;
46881;SDS011;44112;38.408;-122.974;2022-11-24T11:29:28;7.05;;;2.53;;
46881;SDS011;44112;38.408;-122.974;2022-11-24T11:32:15;4.72;;;2.40;;
46881;SDS011;44112;38.408;-122.974;2022-11-24T11:34:44;4.47;;;2.50;;
46881;SDS011;44112;38.408;-122.974;2022-11-24T11:37:12;5.03;;;2.60;;
46881;SDS011;44112;38.408;-122.974;2022-11-24T11:39:40;6.53;;;2.80;;
46881;SDS011;44112;38.408;-122.974;2022-11-24T11:45:13;5.28;;;2.50;;
46881;SDS011;44112;38.408;-122.974;2022-11-24T11:47:47;6.32;;;2.70;;
46881;SDS011;44112;38.408;-122.974;2022-11-24T11:50:23;4.15;;;2.45;;
46881;SDS011;44112;38.408;-122.974;2022-11-24T11:52:59;6.03;;;2.55;;
46881;SDS011;44112;38.408;-122.974;2022-11-24T12:01:47;4.60;;;2.45;;
46881;SDS011;44112;38.408;-122.974;2022-11-24T12:15:24;4.60;;;2.53;;
46881;SDS011;44112;38.408;-122.974;2022-11-24T12:18:06;4.70;;;2.50;;
46881;SDS011;44112;38.408;-122.974;2022-11-24T12:29:29;4.70;;;2.38;;
46881;SDS011;44112;38.408;-122.974;2022-11-24T12:38:04;4.85;;;2.50;;
46881;SDS011;44112;38.408;-122.974;2022-11-24T12:41:17;3.92;;;2.28;;
46881;SDS011;44112;38.408;-122.974;2022-11-24T12:43:51;4.45;;;2.60;;
46881;SDS011;44112;38.408;-122.974;2022-11-24T12:46:27;4.63;;;2.47;;
46881;SDS011;44112;38.408;-122.974;2022-11-24T12:52:17;4.28;;;2.47;;
46881;SDS011;44112;38.408;-122.974;2022-11-24T12:54:50;4.78;;;2.50;;
46881;SDS011;44112;38.408;-122.974;2022-11-24T12:57:22;3.55;;;2.13;;
46881;SDS011;44112;38.408;-122.974;2022-11-24T12:59:53;4.65;;;2.30;;
46881;SDS011;44112;38.408;-122.974;2022-11-24T13:07:48;4.40;;;2.40;;
46881;SDS011;44112;38.408;-122.974;2022-11-24T13:13:02;4.03;;;2.25;;
46881;SDS011;44112;38.408;-122.974;2022-11-24T13:24:00;4.40;;;2.40;;
46881;SDS011;44112;38.408;-122.974;2022-11-24T13:42:25;3.90;;;2.30;;
46881;SDS011;44112;38.408;-122.974;2022-11-24T13:44:54;4.32;;;2.20;;
46881;SDS011;44112;38.408;-122.974;2022-11-24T13:47:38;3.85;;;2.30;;
46881;SDS011;44112;38.408;-122.974;2022-11-24T13:52:45;4.22;;;2.20;;
46881;SDS011;44112;38.408;-122.974;2022-11-24T13:55:33;3.20;;;2.10;;
46881;SDS011;44112;38.408;-122.974;2022-11-24T14:06:13;5.78;;;2.40;;
46881;SDS011;44112;38.408;-122.974;2022-11-24T14:08:53;3.72;;;2.10;;
46881;SDS011;44112;38.408;-122.974;2022-11-24T14:11:21;3.83;;;2.28;;
46881;SDS011;44112;38.408;-122.974;2022-11-24T14:13:50;3.88;;;2.10;;
46881;SDS011;44112;38.408;-122.974;2022-11-24T14:18:44;5.18;;;2.45;;
46881;SDS011;44112;38.408;-122.974;2022-11-24T14:23:47;3.88;;;2.22;;
46881;SDS011;44112;38.408;-122.974;2022-11-24T14:26:25;4.10;;;2.25;;
46881;SDS011;44112;38.408;-122.974;2022-11-24T14:29:19;4.10;;;2.13;;
46881;SDS011;44112;38.408;-122.974;2022-11-24T14:31:57;4.45;;;2.30;;
46881;SDS011;44112;38.408;-122.974;2022-11-24T14:34:30;3.72;;;2.20;;
46881;SDS011;44112;38.408;-122.974;2022-11-24T14:36:59;3.38;;;2.15;;
46881;SDS011;44112;38.408;-122.974;2022-11-24T14:39:26;4.07;;;2.28;;
46881;SDS011;44112;38.408;-122.974;2022-11-24T14:42:04;3.95;;;2.30;;
46881;SDS011;44112;38.408;-122.974;2022-11-24T14:44:59;4.20;;;2.30;;
46881;SDS011;44112;38.408;-122.974;2022-11-24T14:47:32;4.25;;;2.28;;
46881;SDS011;44112;38.408;-122.974;2022-11-24T14:50:34;4.05;;;2.28;;
46881;SDS011;44112;38.408;-122.974;2022-11-24T14:52:54;3.75;;;2.13;;
46881;SDS011;44112;38.408;-122.974;2022-11-24T14:55:28;4.30;;;2.28;;
46881;SDS011;44112;38.408;-122.974;2022-11-24T15:05:51;3.22;;;1.98;;
46881;SDS011;44112;38.408;-122.974;2022-11-24T15:08:27;4.07;;;2.20;;
46881;SDS011;44112;38.408;-122.974;2022-11-24T15:11:06;3.78;;;2.10;;
46881;SDS011;44112;38.408;-122.974;2022-11-24T15:13:34;4.20;;;2.30;;
46881;SDS011;44112;38.408;-122.974;2022-11-24T15:16:06;3.67;;;2.10;;
46881;SDS011;44112;38.408;-122.974;2022-11-24T15:18:41;3.58;;;2.10;;
46881;SDS011;44112;38.408;-122.974;2022-11-24T15:21:10;4.38;;;2.28;;
46881;SDS011;44112;38.408;-122.974;2022-11-24T15:23:37;3.13;;;1.90;;
46881;SDS011;44112;38.408;-122.974;2022-11-24T15:28:33;4.00;;;2.22;;
46881;SDS011;44112;38.408;-122.974;2022-11-24T15:33:28;3.70;;;2.20;;
46881;SDS011;44112;38.408;-122.974;2022-11-24T15:35:55;4.82;;;2.40;;
46881;SDS011;44112;38.408;-122.974;2022-11-24T15:38:22;3.85;;;2.30;;
46881;SDS011;44112;38.408;-122.974;2022-11-24T15:40:49;4.30;;;2.42;;
46881;SDS011;44112;38.408;-122.974;2022-11-24T15:43:33;5.32;;;2.58;;
46881;SDS011;44112;38.408;-122.974;2022-11-24T15:46:01;4.30;;;2.30;;
46881;SDS011;44112;38.408;-122.974;2022-11-24T15:48:29;3.38;;;2.15;;
46881;SDS011;44112;38.408;-122.974;2022-11-24T15:50:56;4.40;;;2.45;;
46881;SDS011;44112;38.408;-122.974;2022-11-24T15:53:29;5.45;;;2.65;;
46881;SDS011;44112;38.408;-122.974;2022-11-24T15:55:56;4.25;;;2.33;;
46881;SDS011;44112;38.408;-122.974;2022-11-24T15:58:23;4.53;;;2.30;;
46881;SDS011;44112;38.408;-122.974;2022-11-24T16:00:50;3.50;;;2.17;;
46881;SDS011;44112;38.408;-122.974;2022-11-24T16:03:18;4.80;;;2.30;;
46881;SDS011;44112;38.408;-122.974;2022-11-24T16:05:46;4.07;;;2.22;;
46881;SDS011;44112;38.408;-122.974;2022-11-24T16:08:15;3.88;;;2.20;;
46881;SDS011;44112;38.408;-122.974;2022-11-24T16:10:43;4.00;;;2.28;;
46881;SDS011;44112;38.408;-122.974;2022-11-24T16:13:10;5.30;;;2.33;;
46881;SDS011;44112;38.408;-122.974;2022-11-24T16:15:37;4.47;;;2.33;;
46881;SDS011;44112;38.408;-122.974;2022-11-24T16:18:04;4.18;;;2.20;;
46881;SDS011;44112;38.408;-122.974;2022-11-24T16:20:33;4.28;;;2.58;;
46881;SDS011;44112;38.408;-122.974;2022-11-24T16:23:01;3.60;;;2.15;;
46881;SDS011;44112;38.408;-122.974;2022-11-24T16:25:30;5.18;;;2.28;;
46881;SDS011;44112;38.408;-122.974;2022-11-24T16:27:57;4.60;;;2.50;;
46881;SDS011;44112;38.408;-122.974;2022-11-24T16:30:24;3.83;;;2.20;;
46881;SDS011;44112;38.408;-122.974;2022-11-24T16:32:50;4.40;;;2.50;;
46881;SDS011;44112;38.408;-122.974;2022-11-24T16:35:17;4.22;;;2.30;;
46881;SDS011;44112;38.408;-122.974;2022-11-24T16:37:44;4.15;;;2.25;;
46881;SDS011;44112;38.408;-122.974;2022-11-24T16:40:11;4.82;;;2.20;;
46881;SDS011;44112;38.408;-122.974;2022-11-24T16:42:38;3.63;;;2.08;;
46881;SDS011;44112;38.408;-122.974;2022-11-24T16:45:04;4.30;;;2.40;;
46881;SDS011;44112;38.408;-122.974;2022-11-24T16:47:31;3.38;;;2.00;;
46881;SDS011;44112;38.408;-122.974;2022-11-24T16:50:06;4.53;;;2.38;;
46881;SDS011;44112;38.408;-122.974;2022-11-24T16:52:34;4.40;;;2.33;;